TimePST,TemperatureF,Dew PointF,Humidity,Sea Level PressureIn,VisibilityMPH,Wind Direction,Wind SpeedMPH,Gust SpeedMPH,PrecipitationIn,Events,Conditions,WindDirDegrees,DateUTC
12:53 AM,33.1,33.1,100,30.27,10.0,Calm,Calm,-,N/A,,Clear,0,2013-03-09 08:53:00
1:53 AM,32.0,32.0,100,30.29,8.0,Calm,Calm,-,N/A,,Clear,0,2013-03-09 09:53:00
2:53 AM,32.0,32.0,100,30.30,6.0,Calm,Calm,-,N/A,,Clear,0,2013-03-09 10:53:00
3:23 AM,30.2,30.2,100,30.30,1.8,Calm,Calm,-,N/A,,Clear,0,2013-03-09 11:23:00
3:31 AM,30.2,30.2,100,30.30,3.0,Calm,Calm,-,N/A,,Clear,0,2013-03-09 11:31:00
3:43 AM,30.2,30.2,100,30.30,1.8,Calm,Calm,-,N/A,,Clear,0,2013-03-09 11:43:00
3:53 AM,32.0,32.0,100,30.31,4.0,Calm,Calm,-,N/A,,Clear,0,2013-03-09 11:53:00
4:53 AM,30.9,30.9,100,30.33,5.0,Calm,Calm,-,N/A,,Clear,0,2013-03-09 12:53:00
5:46 AM,32.0,30.2,93,30.34,5.0,Calm,Calm,-,N/A,,Scattered Clouds,0,2013-03-09 13:46:00
5:53 AM,30.9,30.9,100,30.35,2.5,Calm,Calm,-,N/A,,Mostly Cloudy,0,2013-03-09 13:53:00
6:08 AM,30.2,30.2,100,30.35,4.0,Calm,Calm,-,N/A,,Mostly Cloudy,0,2013-03-09 14:08:00
6:19 AM,32.0,32.0,100,30.35,2.5,Calm,Calm,-,N/A,,Mostly Cloudy,0,2013-03-09 14:19:00
6:30 AM,30.2,30.2,100,30.36,1.2,Calm,Calm,-,N/A,,Overcast,0,2013-03-09 14:30:00
6:53 AM,34.0,34.0,100,30.38,0.2,Calm,Calm,-,N/A,Fog,Fog,0,2013-03-09 14:53:00
7:53 AM,37.9,37.9,100,30.39,0.2,Calm,Calm,-,N/A,Fog,Fog,0,2013-03-09 15:53:00
8:14 AM,39.2,39.2,100,30.39,2.0,Calm,Calm,-,N/A,,Overcast,0,2013-03-09 16:14:00
8:24 AM,39.2,39.2,100,30.39,3.0,Calm,Calm,-,N/A,,Overcast,0,2013-03-09 16:24:00
8:53 AM,41.0,41.0,100,30.41,6.0,Calm,Calm,-,N/A,,Overcast,0,2013-03-09 16:53:00
9:12 AM,41.0,41.0,100,30.41,9.0,Calm,Calm,-,N/A,,Overcast,0,2013-03-09 17:12:00
9:27 AM,42.8,42.8,100,30.42,10.0,SE,3.5,-,N/A,,Overcast,130,2013-03-09 17:27:00
9:53 AM,41.0,41.0,100,30.44,10.0,South,4.6,-,N/A,,Overcast,190,2013-03-09 17:53:00
10:39 AM,42.8,39.2,87,30.45,10.0,South,3.5,-,N/A,,Overcast,180,2013-03-09 18:39:00
10:53 AM,44.1,39.9,85,30.46,10.0,SSE,4.6,-,N/A,,Overcast,150,2013-03-09 18:53:00
11:41 AM,46.4,39.2,76,30.45,10.0,ESE,6.9,-,N/A,,Scattered Clouds,110,2013-03-09 19:41:00
11:53 AM,46.0,39.9,79,30.46,10.0,East,6.9,-,N/A,,Partly Cloudy,100,2013-03-09 19:53:00
12:53 PM,48.9,39.9,71,30.45,10.0,ESE,6.9,-,N/A,,Clear,120,2013-03-09 20:53:00
1:53 PM,48.9,41.0,74,30.46,10.0,Variable,6.9,-,N/A,,Partly Cloudy,0,2013-03-09 21:53:00
2:53 PM,48.9,37.9,66,30.45,10.0,SSW,5.8,-,N/A,,Clear,210,2013-03-09 22:53:00
3:53 PM,48.9,37.9,66,30.46,10.0,Variable,3.5,-,N/A,,Clear,0,2013-03-09 23:53:00
4:53 PM,46.9,37.9,71,30.48,10.0,WSW,3.5,-,N/A,,Clear,240,2013-03-10 00:53:00
5:53 PM,43.0,37.9,82,30.47,10.0,Calm,Calm,-,N/A,,Clear,0,2013-03-10 01:53:00
6:53 PM,39.0,37.0,93,30.49,10.0,Calm,Calm,-,N/A,,Partly Cloudy,0,2013-03-10 02:53:00
7:53 PM,39.0,37.9,96,30.50,10.0,Calm,Calm,-,N/A,,Clear,0,2013-03-10 03:53:00
8:53 PM,37.0,37.0,100,30.50,10.0,Calm,Calm,-,N/A,,Partly Cloudy,0,2013-03-10 04:53:00
9:53 PM,37.9,37.9,100,30.51,10.0,Calm,Calm,-,N/A,,Scattered Clouds,0,2013-03-10 05:53:00
10:53 PM,37.0,37.0,100,30.49,10.0,Calm,Calm,-,N/A,,Clear,0,2013-03-10 06:53:00
11:53 PM,37.0,37.0,100,30.49,10.0,Calm,Calm,-,N/A,,Mostly Cloudy,0,2013-03-10 07:53:00